Terminal Aerodrome Forecast
Issued by NWS Portland, OR

Home | Current Version | Previous Version | Text Only | Print | Product List | Glossary On
Versions: 1 2 3 4 5 6 7 8 9 10 11 12 13 14 15 16 17 18
000
FTUS46 KPQR 270923 AAA
TAFTTD
TAF AMD
KTTD 270923Z 2709/2806 21004KT P6SM OVC030
     FM271200 VRB03KT P6SM SCT015 OVC025
     FM271900 26003KT P6SM OVC035
     FM272000 26003KT P6SM BKN050
     FM272100 25006KT P6SM FEW250=

USA.gov is the U.S. government's official web portal to all federal, state and local government web resources and services.